Slater, CO (81653)

9:51 AM MDT on September 19, 2014 (GMT -0600)
Dixon AP, Dixon, WY | Change Station
CLOSE
Current Station
Airport
Location: Dixon AP, Dixon, WY,
Elevation: 6549 ft
Nearby Weather Stations

Elev 6549 ft 41.04 °N, 107.49 °W | Updated 16 minutes ago

Clear
Clear
63 °F
Feels Like 63 °F
N
8
Wind Variable Wind from East

Today
High -- | Low -- °F
--% Chance of Precip.
Yesterday
High -- | Low -- °F
Precip. -- in
6:54 AM 7:12 PM
Waning Crescent, 18% visible
Pressure 30.19 in
Visibility 10.0 miles
Clouds Clear
Dew Point 44 °F
Humidity 49%
Rainfall 0.00 in
Snow Depth 0 in , 0 in , 0 in
UV 3 out of 12
Pollen 6.70 out of 12
Air Quality Not available.
Flu Activity Not available.
METAR KDWX 191535Z AUTO 09007KT 10SM CLR 17/07 A3019 RMK AO2 T01740066

More Conditions Fewer Conditions

Pressure 30.19 in
Visibility 10.0 miles
Clouds Clear
Dew Point 44 °F
Humidity 49%
Rainfall 0.00 in
Snow Depth 0 in , 0 in , 0 in
UV 3 out of 12
Pollen 6.70 out of 12
Air Quality Not available.
Flu Activity Not available.
METAR KDWX 191535Z AUTO 09007KT 10SM CLR 17/07 A3019 RMK AO2 T01740066

More Conditions Fewer Conditions

10-Day Weather Forecast

Almanac

Astronomy

Sep. 19, 2014 Rise Set
Actual Time 6:54 AM MDT 7:12 PM MDT
Civil Twilight 6:27 AM MDT 7:39 PM MDT
Nautical Twilight 5:54 AM MDT 8:11 PM MDT
Astronomical Twilight 5:21 AM MDT 8:44 PM MDT
Moon 2:41 AM MDT 4:44 PM MDT
Length of Visible Light 13h 12m
Length of Day
12h 17m
Tomorrow will be 2m 42s shorter.
Waning Crescent, 18% of the Moon is Illuminated
Today
Waning Crescent
Sep 24
New
Oct 1
First Quarter
Oct 8
Full
Oct 15
Last Quarter

Today's Extremes

State Highs State Lows

Community

WunderPhotos

Upload Photos

1,754,637 photos uploaded!

WunderBlogs® & News

By Dr. Jeff Masters
Director of Meteorology, Weather Underground
By Kari Strenfel
Meteorologist, Weather Underground
By Christopher C. Burt
Weather Historian, Weather Underground
September 19, 2014
September 19, 2014
September 19, 2014

Nearby

Snow Depth

Station Depth Elevation
Niwot 0 in 9910 ft
Jackwhacker Gulch 0 in 10960 ft
Idarado 0 in 9800 ft
Phantom Valley 0 in 9030 ft
Columbus Basin 0 in 10785 ft

Earthquake Activity

City Distance Mag. Time & Date
No recent earthquake activity has been reported nearby.
Minimum magnitude displayed is 2.5.

Coastal Water Temperatures

Place Temperature
No Stations Reporting

Nearby Weather Stations